Flick Point, California
Current Conditions -  °F | °C
As of 4:45 PM on Friday 24 Oct 2014 (Local Time) from KTRK Reporting Station
Few Clouds Few Clouds  
Wind Chill: 19°   Ceiling: Unl
Heat Index: 19°   Visibility: 10mi
Dew Point: -6°   Wind: 20mph
Humidity: 18%   Direction: 210°SSW
Pressure: 30.06"   Gusts: 25mph
Location:  39.2392°N, 120.102°W
Report Text: KTRK 242345Z 21017G22KT 10SM FEW200 19/M06 A3006 RMK NOSPECI 10210
Loading
Personal Weather Stations






























Interactive Weather Map
Tropical Storm Tracking
New forecast layout! Learn more

10-Day Weather Forecast

Advertisements
Track Severe Weather on mobile